• Join FlightAware (Why Join?)
  • Login
  • US Flag 
02:35PM EDT


 

Airport Tracker/Info


-or-


 

Live Flight TrackerFlight Track Log ✈ EJA809 ✈ 17-Jun-2013 ✈ CYYZ - KBTV

Flight Track Log - Related Links

Times and Time Zones

All times are in EDT time to prevent confusion due to time zone crossing. See the EJA809 flight status page for this flight to view local times or setup timezone preferences in your user account.

Time Position Orientation Groundspeed Altitude Reporting Facility
EDT Latitude Longitude Course Direction KTS MPH feet Rate Location/Type
11:48AM 43.6500 -79.6500 216° Southwest 180 207 2,900  Level Toronto Center
11:49AM 43.6000 -79.7000 216° Southwest 240 276 5,300 1,800 Climbing Toronto Center
11:50AM 43.5500 -79.6333 136° Southeast 280 322 6,600 840 Climbing Toronto Center
11:51AM 43.5000 -79.5167 121° Southeast 300 345 7,000 420 Climbing Toronto Center
11:52AM 43.5000 -79.4333 90° East 310 357 7,500 2,160 Climbing Toronto Center
11:53AM 43.5333 -79.3167 68° East 320 368 11,400 3,960 Climbing Toronto Center
11:54AM 43.5667 -79.1667 73° East 310 357 15,500 3,660 Climbing Toronto Center
11:55AM 43.6000 -79.0833 61° Northeast 300 345 18,800 3,060 Climbing Toronto Center
11:56AM 43.6167 -78.9667 79° East 310 357 21,700 3,000 Climbing Toronto Center
11:57AM 43.6500 -78.8333 71° East 320 368 24,800 2,340 Climbing Toronto Center
11:58AM 43.6833 -78.7167 68° East 330 380 26,400 1,080 Climbing Toronto Center
11:59AM 43.7000 -78.5667 81° East 380 437 27,000 240 Climbing Toronto Center
12:00PM 43.7000 -78.3833 90° East 440 506 27,000  Level Toronto Center
12:01PM 43.7167 -78.2333 81° East 470 541 27,000  Level Toronto Center
12:02PM 43.7500 -78.0333 77° East 470 541 27,000  Level Toronto Center
12:03PM 43.7667 -77.8833 81° East 440 506 27,000  Level Toronto Center
12:04PM 43.7833 -77.7167 82° East 410 472 27,000  Level Toronto Center
12:05PM 43.8000 -77.5833 80° East 400 460 27,000  Level Toronto Center
12:06PM 43.8167 -77.4167 82° East 400 460 27,000  Level Toronto Center
12:07PM 43.8167 -77.2833 90° East 400 460 27,000  Level Toronto Center
12:08PM 43.8333 -77.1167 82° East 400 460 27,000  Level Toronto Center
12:09PM 43.8500 -76.9667 81° East 400 460 27,000  Level Toronto Center
12:10PM 43.8667 -76.8167 81° East 390 449 27,000  Level Toronto Center
12:11PM 43.9000 -76.6667 73° East 390 449 27,000  Level Toronto Center
12:12PM 43.9094 -76.5819 81° East 390 449 27,000  Level Boston Center
12:13PM 43.9231 -76.4300 83° East 390 449 27,000  Level Boston Center
12:14PM 43.9367 -76.2781 83° East 390 449 27,000  Level Boston Center
12:15PM 43.9500 -76.1289 83° East 390 449 27,000  Level Boston Center
12:16PM 43.9714 -75.9772 79° East 390 449 27,000  Level Boston Center
12:17PM 43.9986 -75.8344 75° East 390 449 27,000  Level Boston Center
12:18PM 44.0281 -75.6858 75° East 390 449 27,000  Level Boston Center
12:19PM 44.0550 -75.5400 76° East 390 449 27,000  Level Boston Center
12:20PM 44.0839 -75.3942 75° East 390 449 27,000  Level Boston Center
12:21PM 44.1083 -75.2478 77° East 390 449 27,000  Level Boston Center
12:22PM 44.1347 -75.1014 76° East 390 449 27,000 -300 Level Boston Center
12:23PM 44.1611 -74.9492 76° East 390 449 26,400 -840 Descending Boston Center
12:24PM 44.1892 -74.7969 76° East 397 457 25,400 -1,260 Descending Boston Center
12:25PM 44.2194 -74.6358 75° East 412 474 23,900 -1,500 Descending Boston Center
12:26PM 44.2456 -74.4686 78° East 424 488 22,400 -1,560 Descending Boston Center
12:27PM 44.2753 -74.3075 75° East 429 494 20,800 -2,040 Descending Boston Center
12:28PM 44.3028 -74.1575 76° East 417 480 18,400 -2,340 Descending Boston Center
12:29PM 44.3211 -74.0419 77° East 399 459 16,200 -2,520 Descending Boston Center
12:30PM 44.3503 -73.8772 76° East 370 426 12,900 -3,060 Descending Boston Center
12:31PM 44.3483 -73.6972 91° East 356 410 9,600 -2,460 Descending Boston Center
12:32PM 44.3453 -73.5781 92° East 323 372 7,600 -2,040 Descending Boston Center
12:33PM 44.3547 -73.4475 84° East 285 328 5,200 -1,800 Descending Boston Center
12:34PM 44.3639 -73.3461 83° East 266 306 4,000 -600 Descending Boston Center
12:35PM 44.3875 -73.2622 68° East 241 277 4,000 -240 Level Boston Center
12:36PM 44.4006 -73.1983 74° East 203 234 3,500 -960 Descending Boston Center
12:37PM 44.4281 -73.1203 64° Northeast 174 200 1,900 -1,440 Descending Boston Center
12:38PM 44.4572 -73.1322 344° North 105 121 700 -840 Descending Boston Center
12:39PM 44.4736 -73.1558 314° West 95 109 300 -180 Descending Boston Center
12:40PM 44.4717 -73.1558 180° South 50 58 400  Climbing Boston Center
12:41PM 44.4675 -73.1528 152° Southeast 19 22 400  Level Boston Center
12:42PM 44.4694 -73.1614 288° West 13 15 400 9,180 Level Boston Center
12:43PM 44.4694 -73.1703 270° West 13 15 19,000 18,600 Climbing Boston Center